Time;durP1;ratioP1;P1;durP2;ratioP2;P2;SDS_P1;SDS_P2;PMS_P1;PMS_P2;Temp;Humidity;BMP_temperature;BMP_pressure;BME280_temperature;BME280_humidity;BME280_pressure;Samples;Min_cycle;Max_cycle;Signal;HPM_P1;HPM_P2
2023/05/11 00:01:47;;;;;;;58.72;29.55;;;;;;;9.02;100.00;101215.56;10528658;28;20072;-79
2023/05/11 00:06:47;;;;;;;51.88;28.27;;;;;;;8.95;100.00;101223.84;10524695;28;20122;-79
2023/05/11 00:11:48;;;;;;;47.90;27.35;;;;;;;9.01;100.00;101220.72;10527716;28;20060;-79
2023/05/11 00:16:48;;;;;;;57.67;31.88;;;;;;;9.01;100.00;101216.38;10514604;28;20527;-79
2023/05/11 00:21:49;;;;;;;51.30;26.85;;;;;;;9.06;100.00;101212.31;10511416;28;20134;-80
2023/05/11 00:26:49;;;;;;;48.88;29.30;;;;;;;9.06;100.00;101212.31;10511235;28;20123;-80
2023/05/11 00:31:50;;;;;;;66.00;30.90;;;;;;;9.04;100.00;101202.63;10511978;28;20476;-80
2023/05/11 00:36:50;;;;;;;65.45;32.85;;;;;;;9.04;100.00;101213.06;10530139;28;20032;-80
2023/05/11 00:41:51;;;;;;;67.43;36.05;;;;;;;9.09;100.00;101217.72;10497178;28;20115;-80
2023/05/11 00:46:51;;;;;;;64.05;35.85;;;;;;;9.19;100.00;101215.66;10510513;28;20144;-80
2023/05/11 00:51:52;;;;;;;69.78;35.53;;;;;;;9.23;100.00;101213.34;10510582;28;20075;-81
2023/05/11 00:56:52;;;;;;;71.78;38.13;;;;;;;9.30;100.00;101211.97;10526795;28;20066;-82
2023/05/11 01:01:53;;;;;;;69.80;38.25;;;;;;;9.39;100.00;101217.72;10527509;28;20432;-81
2023/05/11 01:07:11;;;;;;;88.38;40.83;;;;;;;9.50;100.00;101210.53;10526716;28;20124;-80
2023/05/11 01:12:37;;;;;;;77.85;39.28;;;;;;;9.53;100.00;101215.00;10525227;28;20097;-80
2023/05/11 01:17:53;;;;;;;71.15;36.33;;;;;;;9.60;100.00;101216.28;10524947;28;20102;-80
2023/05/11 01:23:30;;;;;;;80.18;38.90;;;;;;;9.61;100.00;101218.97;10528179;28;20047;-79
2023/05/11 01:29:05;;;;;;;94.60;47.47;;;;;;;9.71;100.00;101209.94;10526757;28;20047;-80
2023/05/11 01:34:09;;;;;;;102.13;50.13;;;;;;;9.64;100.00;101216.53;10527272;28;20048;-79
2023/05/11 01:39:10;;;;;;;110.38;50.40;;;;;;;9.52;100.00;101214.13;10524687;28;20039;-80
2023/05/11 01:44:10;;;;;;;97.20;47.63;;;;;;;9.54;100.00;101219.44;10524043;28;20043;-79
2023/05/11 01:49:11;;;;;;;90.07;46.15;;;;;;;9.44;100.00;101219.72;10507279;28;20060;-79
2023/05/11 01:54:11;;;;;;;80.68;43.88;;;;;;;9.35;100.00;101225.31;10507621;28;20123;-80
2023/05/11 01:59:13;;;;;;;112.40;50.10;;;;;;;9.34;100.00;101229.63;10482603;28;20060;-79
2023/05/11 02:04:13;;;;;;;110.27;51.87;;;;;;;9.33;100.00;101222.59;10479964;28;20044;-80
2023/05/11 02:09:15;;;;;;;96.53;47.28;;;;;;;9.17;100.00;101219.91;10507964;28;20182;-81
2023/05/11 02:14:16;;;;;;;95.43;50.08;;;;;;;9.08;100.00;101222.88;10524161;28;20402;-79
2023/05/11 02:19:17;;;;;;;132.27;46.53;;;;;;;8.99;100.00;101230.16;10491408;28;20472;-79
2023/05/11 02:24:17;;;;;;;87.30;42.03;;;;;;;9.11;100.00;101230.91;10506773;28;20068;-79
2023/05/11 02:29:18;;;;;;;89.07;46.80;;;;;;;9.27;100.00;101237.91;10507799;28;20040;-79
2023/05/11 02:34:28;;;;;;;84.28;41.60;;;;;;;9.36;100.00;101240.19;10523051;28;20067;-79
2023/05/11 02:39:33;;;;;;;106.05;52.63;;;;;;;9.32;100.00;101232.97;10524844;28;20051;-80
2023/05/11 02:44:34;;;;;;;102.07;45.58;;;;;;;9.29;100.00;101225.84;10507232;28;20033;-80
2023/05/11 02:49:35;;;;;;;102.63;49.03;;;;;;;9.13;100.00;101223.13;10524065;28;20040;-79
2023/05/11 02:54:36;;;;;;;92.32;48.60;;;;;;;8.99;100.00;101227.56;10505952;28;20119;-79
2023/05/11 02:59:36;;;;;;;177.93;59.38;;;;;;;8.90;100.00;101231.41;10520334;28;20395;-79
2023/05/11 03:04:40;;;;;;;92.15;46.00;;;;;;;8.76;100.00;101232.28;10525802;28;20128;-80
2023/05/11 03:09:40;;;;;;;97.60;46.47;;;;;;;8.64;100.00;101222.91;10522116;28;20044;-80
2023/05/11 03:14:41;;;;;;;121.70;56.83;;;;;;;8.49;100.00;101229.78;10502389;28;20063;-80
2023/05/11 03:19:44;;;;;;;101.28;47.78;;;;;;;8.27;100.00;101233.63;10503026;28;20127;-80
2023/05/11 03:24:45;;;;;;;112.05;48.50;;;;;;;8.24;100.00;101228.22;10524406;28;20043;-81
2023/05/11 03:29:46;;;;;;;121.85;55.15;;;;;;;8.19;100.00;101227.03;10531374;28;20085;-86
2023/05/11 03:34:46;;;;;;;109.45;56.60;;;;;;;8.01;100.00;101217.25;10510988;28;20123;-81
2023/05/11 03:39:47;;;;;;;101.35;48.83;;;;;;;7.87;100.00;101212.84;10513043;28;20518;-82
2023/05/11 03:44:47;;;;;;;143.35;60.03;;;;;;;7.82;100.00;101212.53;10509114;28;20059;-82
2023/05/11 03:49:48;;;;;;;87.00;42.85;;;;;;;7.76;100.00;101215.66;10477581;28;20032;-81
2023/05/11 03:54:49;;;;;;;92.72;47.42;;;;;;;7.76;100.00;101225.19;10510335;28;20035;-80
2023/05/11 03:59:49;;;;;;;152.52;55.47;;;;;;;7.83;100.00;101216.94;10505712;28;20122;-80
2023/05/11 04:04:51;;;;;;;198.40;66.70;;;;;;;7.97;100.00;101217.84;10484932;28;20509;-80
2023/05/11 04:09:52;;;;;;;144.48;55.38;;;;;;;8.14;100.00;101215.41;10527490;28;20036;-80
2023/05/11 04:14:52;;;;;;;156.98;62.78;;;;;;;8.26;100.00;101217.88;10522284;28;20040;-80
2023/05/11 04:19:53;;;;;;;160.43;67.10;;;;;;;8.30;100.00;101218.19;10523839;28;20036;-83
2023/05/11 04:24:54;;;;;;;167.30;67.78;;;;;;;8.44;100.00;101220.75;10524136;28;20114;-80
2023/05/11 04:29:54;;;;;;;182.45;66.47;;;;;;;8.58;100.00;101230.34;10515451;28;20037;-82
2023/05/11 04:34:55;;;;;;;166.50;68.25;;;;;;;8.72;100.00;101238.13;10509634;28;20127;-81
2023/05/11 04:39:59;;;;;;;157.77;70.03;;;;;;;8.84;100.00;101232.75;10509990;28;20035;-82
2023/05/11 04:44:59;;;;;;;151.70;68.07;;;;;;;8.92;100.00;101232.41;10528931;28;20036;-82
2023/05/11 04:50:00;;;;;;;164.27;72.72;;;;;;;9.06;100.00;101233.22;10528013;28;20036;-82
2023/05/11 04:55:04;;;;;;;117.80;57.75;;;;;;;9.19;100.00;101242.69;10527100;28;20040;-82
2023/05/11 05:00:07;;;;;;;145.05;63.92;;;;;;;9.31;100.00;101246.84;10525942;28;20036;-82
2023/05/11 05:05:07;;;;;;;;;;;;;;;9.40;100.00;101243.03;10507742;28;20040;-90
2023/05/11 05:10:10;;;;;;;176.38;76.97;;;;;;;9.52;100.00;101248.09;10521330;28;19920;-85
2023/05/11 05:15:11;;;;;;;167.43;75.30;;;;;;;9.63;100.00;101256.53;10506172;28;20066;-92
2023/05/11 05:20:11;;;;;;;161.38;71.25;;;;;;;9.73;100.00;101260.59;10493132;28;20369;-84
2023/05/11 05:25:12;;;;;;;124.15;61.20;;;;;;;9.88;100.00;101264.91;10523620;28;20063;-87
2023/05/11 05:30:12;;;;;;;132.70;65.70;;;;;;;9.95;100.00;101261.81;10514897;28;20117;-80
2023/05/11 05:35:13;;;;;;;138.57;63.33;;;;;;;10.02;100.00;101286.59;10523649;28;20101;-81
2023/05/11 05:40:14;;;;;;;113.63;57.22;;;;;;;10.13;100.00;101282.88;10511006;28;20532;-81
2023/05/11 05:45:14;;;;;;;134.23;58.47;;;;;;;10.16;100.00;101293.50;10518527;28;20044;-80
2023/05/11 05:50:15;;;;;;;126.40;60.28;;;;;;;10.18;100.00;101289.25;10524831;28;20503;-81
2023/05/11 05:55:15;;;;;;;121.50;58.13;;;;;;;10.27;100.00;101302.84;10485704;28;20116;-81
2023/05/11 06:00:16;;;;;;;120.90;59.20;;;;;;;10.39;100.00;101301.72;10482306;28;20111;-81
2023/05/11 06:05:16;;;;;;;134.85;64.47;;;;;;;10.49;100.00;101300.56;10483101;28;20094;-81
2023/05/11 06:10:17;;;;;;;113.45;57.85;;;;;;;10.51;100.00;101305.06;10484859;28;20116;-81
2023/05/11 06:15:17;;;;;;;111.05;55.65;;;;;;;10.52;100.00;101311.22;10484788;28;20040;-80
2023/05/11 06:20:18;;;;;;;112.63;55.08;;;;;;;10.56;100.00;101308.81;10483396;28;20044;-80
2023/05/11 06:25:18;;;;;;;110.57;56.35;;;;;;;10.85;100.00;101314.75;10484909;28;21210;-81
2023/05/11 06:30:19;;;;;;;102.75;52.53;;;;;;;11.06;100.00;101321.06;10484913;28;20446;-80
2023/05/11 06:35:21;;;;;;;94.47;48.85;;;;;;;11.16;100.00;101318.09;10484327;28;20109;-80
2023/05/11 06:40:21;;;;;;;78.35;39.78;;;;;;;11.29;100.00;101315.31;10482369;28;20041;-80
2023/05/11 06:45:22;;;;;;;65.57;38.13;;;;;;;11.47;100.00;101306.59;10484029;28;20493;-80
2023/05/11 06:50:23;;;;;;;58.58;33.45;;;;;;;11.77;100.00;101306.34;10468348;28;20136;-81
2023/05/11 06:55:23;;;;;;;58.97;30.85;;;;;;;11.91;100.00;101304.38;10490664;28;20123;-80
2023/05/11 07:00:24;;;;;;;51.35;28.08;;;;;;;12.04;100.00;101305.94;10492092;28;20028;-80
2023/05/11 07:05:24;;;;;;;40.03;24.45;;;;;;;12.28;100.00;101306.19;10492786;28;20403;-80
2023/05/11 07:10:25;;;;;;;33.05;23.73;;;;;;;12.57;100.00;101306.66;10489859;28;20168;-80
2023/05/11 07:15:26;;;;;;;31.50;20.38;;;;;;;12.77;100.00;101306.69;10489778;28;20036;-80
2023/05/11 07:20:26;;;;;;;34.33;19.05;;;;;;;13.00;100.00;101305.09;10491005;28;20111;-80
2023/05/11 07:25:27;;;;;;;29.80;18.35;;;;;;;13.07;100.00;101301.94;10492028;28;20064;-80
2023/05/11 07:30:27;;;;;;;30.80;18.33;;;;;;;13.09;100.00;101299.34;10490280;28;20072;-80
2023/05/11 07:35:28;;;;;;;28.50;16.50;;;;;;;13.01;100.00;101284.97;10490882;28;20112;-80
2023/05/11 07:40:28;;;;;;;29.35;17.33;;;;;;;12.99;100.00;101298.06;10472796;28;20050;-80
2023/05/11 07:45:30;;;;;;;35.45;22.02;;;;;;;13.03;100.00;101302.63;10488035;28;20514;-80
2023/05/11 07:50:31;;;;;;;26.65;14.32;;;;;;;12.96;100.00;101295.28;10490132;28;20033;-79
2023/05/11 07:55:32;;;;;;;31.88;16.45;;;;;;;13.01;100.00;101303.38;10524721;28;20272;-79
2023/05/11 08:00:32;;;;;;;24.05;15.10;;;;;;;13.17;100.00;101305.84;10511975;28;20442;-79
2023/05/11 08:05:36;;;;;;;24.40;15.10;;;;;;;13.82;100.00;101310.38;10509568;28;20040;-80
2023/05/11 08:10:36;;;;;;;69.40;43.83;;;;;;;14.49;100.00;101295.47;10484102;28;20555;-80
2023/05/11 08:15:37;;;;;;;27.90;19.05;;;;;;;14.85;100.00;101290.69;10504492;28;20127;-80
2023/05/11 08:20:43;;;;;;;25.42;16.23;;;;;;;14.44;100.00;101296.13;10514299;28;20124;-80
2023/05/11 08:25:52;;;;;;;27.65;15.30;;;;;;;13.89;100.00;101306.25;10504294;28;20032;-79
2023/05/11 08:30:56;;;;;;;26.30;14.98;;;;;;;13.49;100.00;101308.13;10527633;28;20036;-79
2023/05/11 08:35:56;;;;;;;28.70;17.38;;;;;;;13.03;100.00;101320.09;10511304;28;20441;-80
2023/05/11 08:40:57;;;;;;;29.23;16.98;;;;;;;13.20;100.00;101318.25;10487596;28;20182;-79
2023/05/11 08:46:01;;;;;;;24.52;14.38;;;;;;;13.48;100.00;101324.72;10505443;28;20043;-79
2023/05/11 08:51:03;;;;;;;40.00;16.25;;;;;;;13.56;100.00;101328.59;10528374;28;20028;-79
2023/05/11 08:56:05;;;;;;;25.17;15.93;;;;;;;13.75;100.00;101319.72;10509348;28;20492;-79
2023/05/11 09:01:06;;;;;;;23.48;14.50;;;;;;;13.90;100.00;101326.47;10509597;28;20046;-80
2023/05/11 09:06:07;;;;;;;29.05;17.15;;;;;;;14.25;100.00;101319.09;10525515;28;20047;-79
2023/05/11 09:11:08;;;;;;;23.33;15.25;;;;;;;14.87;100.00;101317.97;10529258;28;20472;-80
2023/05/11 09:16:08;;;;;;;18.42;13.05;;;;;;;15.31;100.00;101321.34;10525556;28;20126;-81
2023/05/11 09:21:09;;;;;;;19.13;11.52;;;;;;;15.63;100.00;101324.19;10527801;28;20038;-82
2023/05/11 09:26:16;;;;;;;19.33;12.27;;;;;;;16.07;100.00;101323.03;10526257;28;20502;-82
2023/05/11 09:31:36;;;;;;;20.35;10.82;;;;;;;16.58;100.00;101324.59;10509606;28;20036;-80
2023/05/11 09:36:36;;;;;;;18.42;12.73;;;;;;;16.76;100.00;101320.69;10525545;28;20033;-79
2023/05/11 09:41:37;;;;;;;23.50;13.23;;;;;;;16.65;100.00;101321.28;10525240;28;20487;-82
2023/05/11 09:46:37;;;;;;;22.67;13.52;;;;;;;16.48;100.00;101312.84;10483397;28;20076;-80
2023/05/11 09:51:39;;;;;;;21.83;13.73;;;;;;;16.29;100.00;101320.22;10466903;28;20044;-80
2023/05/11 09:56:50;;;;;;;24.48;14.15;;;;;;;16.13;100.00;101326.75;10466463;28;20025;-80
2023/05/11 10:01:51;;;;;;;24.15;13.43;;;;;;;15.87;100.00;101323.25;10465862;28;20116;-82
2023/05/11 10:06:52;;;;;;;26.13;16.20;;;;;;;16.24;100.00;101324.44;10466136;28;20032;-80
2023/05/11 10:11:52;;;;;;;20.25;13.68;;;;;;;17.70;100.00;101309.19;10483071;28;20067;-82
2023/05/11 10:16:53;;;;;;;27.85;15.68;;;;;;;18.59;100.00;101310.41;10465978;28;20044;-80
2023/05/11 10:21:53;;;;;;;22.23;14.02;;;;;;;19.04;100.00;101308.72;10467036;28;20029;-81
2023/05/11 10:26:54;;;;;;;16.60;12.07;;;;;;;18.38;100.00;101307.28;10465810;28;20039;-79
2023/05/11 10:31:56;;;;;;;21.27;13.35;;;;;;;18.03;100.00;101302.94;10482469;28;20036;-79
2023/05/11 10:37:01;;;;;;;22.13;16.17;;;;;;;17.21;100.00;101308.78;10483409;28;20032;-80
2023/05/11 10:42:10;;;;;;;34.80;12.88;;;;;;;15.86;100.00;101317.03;10465777;28;20407;-80
2023/05/11 10:47:22;;;;;;;30.13;15.90;;;;;;;14.52;100.00;101328.91;10482844;28;20431;-80
2023/05/11 10:52:44;;;;;;;24.35;14.75;;;;;;;14.13;100.00;101322.16;10483657;28;20037;-80
2023/05/11 10:58:12;;;;;;;25.10;13.60;;;;;;;14.08;100.00;101319.31;10484521;28;20037;-80
2023/05/11 11:03:13;;;;;;;27.88;15.65;;;;;;;14.13;100.00;101322.16;10484307;28;20098;-80
2023/05/11 11:08:13;;;;;;;32.75;17.63;;;;;;;14.51;100.00;101322.78;10465020;28;20094;-80
2023/05/11 11:13:15;;;;;;;23.40;14.10;;;;;;;14.52;100.00;101315.75;10481723;28;20183;-80
2023/05/11 11:18:22;;;;;;;23.70;12.50;;;;;;;14.67;100.00;101320.72;10482662;28;20123;-79
2023/05/11 11:23:38;;;;;;;24.23;12.10;;;;;;;14.89;100.00;101326.84;10480900;28;20044;-80
2023/05/11 11:28:55;;;;;;;23.15;13.85;;;;;;;15.30;100.00;101306.34;10483687;28;20040;-80
2023/05/11 11:33:57;;;;;;;20.70;13.52;;;;;;;15.35;100.00;101302.13;10482738;28;20388;-80
2023/05/11 11:38:59;;;;;;;24.63;15.80;;;;;;;15.66;100.00;101307.56;10486830;28;20068;-80
2023/05/11 11:43:59;;;;;;;26.70;14.40;;;;;;;15.99;100.00;101305.19;10488673;28;20035;-80
2023/05/11 11:49:07;;;;;;;22.50;13.50;;;;;;;16.19;100.00;101299.66;10471638;28;20453;-80
2023/05/11 11:54:08;;;;;;;30.45;13.13;;;;;;;16.49;100.00;101301.44;10486801;28;20078;-80
2023/05/11 11:59:12;;;;;;;18.77;11.10;;;;;;;16.42;100.00;101296.81;10468303;28;20743;-80
2023/05/11 12:04:22;;;;;;;20.92;12.82;;;;;;;16.46;100.00;101300.44;10485396;28;20610;-80
2023/05/11 12:09:23;;;;;;;24.10;12.75;;;;;;;16.46;100.00;101298.72;10468615;28;20449;-79
2023/05/11 12:14:23;;;;;;;17.73;11.63;;;;;;;16.10;100.00;101294.06;10471602;28;20082;-80
2023/05/11 12:19:24;;;;;;;25.17;10.98;;;;;;;16.15;100.00;101290.72;10470644;28;20112;-80
2023/05/11 12:24:25;;;;;;;16.60;11.07;;;;;;;16.70;100.00;101290.59;10488332;28;20124;-80
2023/05/11 12:29:25;;;;;;;15.27;11.70;;;;;;;17.40;100.00;101281.06;10489703;28;20033;-80
2023/05/11 12:34:26;;;;;;;24.40;10.30;;;;;;;19.36;100.00;101273.03;10469590;28;20123;-80
2023/05/11 12:39:26;;;;;;;13.93;10.27;;;;;;;19.82;100.00;101259.63;10488239;28;20125;-80
2023/05/11 12:44:27;;;;;;;17.03;9.80;;;;;;;19.86;100.00;101257.94;10486034;28;20438;-80
2023/05/11 12:49:27;;;;;;;15.73;8.80;;;;;;;20.45;100.00;101253.50;10472182;28;20078;-80
2023/05/11 12:54:32;;;;;;;22.20;9.53;;;;;;;20.76;100.00;101256.53;10509074;28;20405;-80
2023/05/11 12:59:40;;;;;;;15.32;9.50;;;;;;;19.57;100.00;101255.72;10525916;28;20167;-79
2023/05/11 13:04:41;;;;;;;16.48;8.63;;;;;;;19.71;100.00;101250.59;10508470;28;20040;-79
2023/05/11 13:09:41;;;;;;;16.20;8.27;;;;;;;19.75;100.00;101249.78;10509771;28;20492;-79
2023/05/11 13:14:49;;;;;;;17.17;9.90;;;;;;;19.31;100.00;101248.19;10527013;28;20151;-80
2023/05/11 13:19:50;;;;;;;19.15;10.45;;;;;;;19.24;100.00;101246.28;10509449;28;20032;-79
2023/05/11 13:25:00;;;;;;;17.40;8.90;;;;;;;19.43;100.00;101240.44;10526418;28;20040;-79
2023/05/11 13:30:03;;;;;;;12.88;8.02;;;;;;;19.53;100.00;101238.81;10509615;28;20036;-79
2023/05/11 13:35:04;;;;;;;12.82;8.23;;;;;;;19.63;100.00;101247.84;10507636;28;20092;-79
2023/05/11 13:40:07;;;;;;;14.82;7.57;;;;;;;18.65;100.00;101243.38;10509229;28;20081;-78
2023/05/11 13:45:08;;;;;;;15.05;7.97;;;;;;;18.66;100.00;101233.69;10526310;28;20123;-79
2023/05/11 13:50:09;;;;;;;16.42;10.30;;;;;;;19.09;100.00;101226.59;10525326;28;20036;-78
2023/05/11 13:55:09;;;;;;;20.77;10.60;;;;;;;19.04;100.00;101231.78;10525064;28;20024;-78
2023/05/11 14:00:10;;;;;;;17.30;11.03;;;;;;;19.67;100.00;101220.47;10524807;28;20114;-79
2023/05/11 14:05:11;;;;;;;17.57;11.37;;;;;;;20.28;100.00;101214.28;10525786;28;20088;-79
2023/05/11 14:10:12;;;;;;;21.37;12.23;;;;;;;20.24;100.00;101217.78;10507387;28;20128;-78
2023/05/11 14:15:13;;;;;;;20.80;10.73;;;;;;;19.88;100.00;101216.38;10524713;28;20036;-78
2023/05/11 14:20:13;;;;;;;14.67;8.67;;;;;;;18.82;100.00;101211.00;10526345;28;20028;-79
2023/05/11 14:25:14;;;;;;;18.00;10.30;;;;;;;18.27;100.00;101219.59;10523730;28;20040;-79
2023/05/11 14:30:14;;;;;;;17.77;11.93;;;;;;;17.66;100.00;101218.22;10524344;28;20043;-79
2023/05/11 14:35:15;;;;;;;26.02;16.33;;;;;;;17.20;100.00;101219.72;10523827;28;20174;-78
2023/05/11 14:40:16;;;;;;;24.90;14.85;;;;;;;16.65;100.00;101219.97;10512556;28;20052;-78
2023/05/11 14:45:16;;;;;;;29.42;16.70;;;;;;;16.46;100.00;101223.81;10441585;28;20127;-78
2023/05/11 14:50:17;;;;;;;33.72;17.98;;;;;;;16.42;100.00;101223.72;10449896;28;20127;-78
2023/05/11 14:55:17;;;;;;;32.10;18.70;;;;;;;16.40;100.00;101224.56;10482713;28;20094;-78
2023/05/11 15:00:18;;;;;;;36.08;17.73;;;;;;;16.49;100.00;101223.91;10481567;28;20124;-78
2023/05/11 15:05:18;;;;;;;29.35;18.70;;;;;;;16.61;100.00;101218.09;10481245;28;20087;-77
2023/05/11 15:10:19;;;;;;;38.60;18.42;;;;;;;17.02;100.00;101213.97;10485360;28;20036;-77
2023/05/11 15:15:20;;;;;;;36.03;22.80;;;;;;;17.20;100.00;101217.09;10529421;28;20089;-77
2023/05/11 15:20:20;;;;;;;35.40;22.70;;;;;;;17.10;100.00;101218.56;10496189;28;20033;-77
2023/05/11 15:25:21;;;;;;;34.70;22.90;;;;;;;17.28;100.00;101208.47;10496406;28;20043;-76
2023/05/11 15:30:22;;;;;;;42.95;26.80;;;;;;;17.39;100.00;101223.72;10524813;28;20047;-77
2023/05/11 15:35:22;;;;;;;50.30;25.00;;;;;;;17.30;100.00;101219.97;10531685;28;20127;-77
2023/05/11 15:40:23;;;;;;;36.65;20.00;;;;;;;17.38;100.00;101222.84;10511758;28;20054;-77
2023/05/11 15:45:24;;;;;;;37.63;23.60;;;;;;;17.40;100.00;101220.22;10509079;28;20063;-77
2023/05/11 15:50:24;;;;;;;33.38;19.17;;;;;;;17.42;100.00;101218.50;10521414;28;20063;-77
2023/05/11 15:55:25;;;;;;;29.65;17.25;;;;;;;17.00;100.00;101213.03;10495697;28;20497;-77
2023/05/11 16:00:25;;;;;;;30.38;17.63;;;;;;;16.80;100.00;101214.22;10512265;28;20071;-78
2023/05/11 16:05:27;;;;;;;33.58;18.95;;;;;;;16.80;100.00;101222.16;10520219;28;20173;-76
2023/05/11 16:10:27;;;;;;;42.90;23.13;;;;;;;16.72;100.00;101227.22;10495357;28;20589;-76
2023/05/11 16:15:30;;;;;;;40.72;20.58;;;;;;;16.69;100.00;101221.84;10513357;28;20061;-76
2023/05/11 16:20:30;;;;;;;34.97;21.75;;;;;;;16.45;100.00;101222.94;10500479;28;20109;-77
2023/05/11 16:25:31;;;;;;;35.28;22.65;;;;;;;16.24;100.00;101217.91;10522863;28;20930;-76
2023/05/11 16:30:34;;;;;;;36.60;20.35;;;;;;;16.18;100.00;101223.00;10528479;28;20479;-76
2023/05/11 16:35:35;;;;;;;27.80;17.20;;;;;;;16.12;100.00;101215.81;10525687;28;20138;-76
2023/05/11 16:40:36;;;;;;;38.10;17.70;;;;;;;16.00;100.00;101213.66;10504950;28;20043;-76
2023/05/11 16:45:36;;;;;;;34.70;22.15;;;;;;;15.94;100.00;101222.31;10508833;28;20395;-77
2023/05/11 16:50:37;;;;;;;43.67;25.15;;;;;;;15.82;100.00;101216.63;10510461;28;20040;-77
2023/05/11 16:55:38;;;;;;;37.97;21.00;;;;;;;15.63;100.00;101213.38;10523756;28;20131;-78
2023/05/11 17:00:38;;;;;;;44.75;24.05;;;;;;;15.50;100.00;101214.72;10522276;28;20152;-77
2023/05/11 17:05:39;;;;;;;46.00;21.65;;;;;;;15.44;100.00;101222.41;10505526;28;20036;-77
2023/05/11 17:10:39;;;;;;;42.80;22.30;;;;;;;15.33;100.00;101226.44;10507293;28;20032;-77
2023/05/11 17:15:40;;;;;;;38.00;21.83;;;;;;;15.26;100.00;101226.22;10488625;28;20571;-78
2023/05/11 17:20:41;;;;;;;50.13;24.35;;;;;;;15.16;100.00;101226.75;10487163;28;20048;-77
2023/05/11 17:25:41;;;;;;;38.40;24.45;;;;;;;15.11;100.00;101228.34;10506863;28;20050;-77
2023/05/11 17:30:42;;;;;;;44.88;23.70;;;;;;;15.06;100.00;101233.47;10487640;28;20115;-77
2023/05/11 17:35:43;;;;;;;48.55;25.50;;;;;;;15.01;100.00;101232.41;10504555;28;20036;-78
2023/05/11 17:40:43;;;;;;;53.90;27.85;;;;;;;15.00;100.00;101230.63;10502930;28;20028;-78
2023/05/11 17:45:44;;;;;;;50.60;23.13;;;;;;;14.97;100.00;101222.59;10514965;28;20135;-78
2023/05/11 17:50:44;;;;;;;37.58;24.45;;;;;;;14.92;100.00;101238.22;10520610;28;20093;-83
2023/05/11 17:55:45;;;;;;;36.70;21.95;;;;;;;14.80;100.00;101233.44;10524074;28;20115;-80
2023/05/11 18:00:46;;;;;;;37.13;23.58;;;;;;;14.64;100.00;101237.19;10524338;28;20119;-79
2023/05/11 18:05:47;;;;;;;40.03;21.55;;;;;;;14.47;100.00;101239.22;10514359;28;20075;-80
2023/05/11 18:10:47;;;;;;;40.75;23.40;;;;;;;14.38;100.00;101237.13;10499425;28;20028;-80
2023/05/11 18:15:48;;;;;;;47.65;23.75;;;;;;;14.31;100.00;101248.25;10524813;28;20127;-80
2023/05/11 18:20:48;;;;;;;43.35;24.35;;;;;;;14.16;100.00;101247.66;10518621;28;20060;-80
2023/05/11 18:25:49;;;;;;;41.08;24.38;;;;;;;14.00;100.00;101252.31;10524001;28;20123;-79
2023/05/11 18:30:49;;;;;;;52.97;31.10;;;;;;;13.90;100.00;101263.31;10524471;28;20101;-78
2023/05/11 18:35:50;;;;;;;41.92;22.85;;;;;;;13.91;100.00;101267.75;10482697;28;20075;-78
2023/05/11 18:40:51;;;;;;;24.10;16.50;;;;;;;13.82;100.00;101267.38;10508117;28;20043;-78
2023/05/11 18:45:52;;;;;;;17.03;9.00;;;;;;;13.58;100.00;101262.91;10525690;28;20040;-78
2023/05/11 18:50:54;;;;;;;15.32;6.72;;;;;;;13.58;100.00;101265.53;10498191;28;20119;-78
2023/05/11 18:55:55;;;;;;;7.53;4.22;;;;;;;13.46;100.00;101268.56;10531993;28;20097;-78
2023/05/11 19:00:55;;;;;;;10.00;5.53;;;;;;;13.21;100.00;101263.09;10532123;28;20036;-78
2023/05/11 19:05:55;;;;;;;10.68;4.40;;;;;;;12.92;100.00;101275.84;10513334;28;20071;-78
2023/05/11 19:10:56;;;;;;;8.10;4.53;;;;;;;12.68;100.00;101291.41;10532074;28;20036;-78
2023/05/11 19:15:56;;;;;;;8.18;5.07;;;;;;;12.48;100.00;101291.41;10533687;28;20071;-78
2023/05/11 19:20:57;;;;;;;9.57;4.20;;;;;;;12.33;100.00;101306.44;10528796;28;20072;-78
2023/05/11 19:25:58;;;;;;;6.75;3.72;;;;;;;12.17;100.00;101305.69;10510270;28;20123;-78
2023/05/11 19:31:03;;;;;;;8.75;4.40;;;;;;;12.06;100.00;101316.47;10513059;28;20396;-78
2023/05/11 19:36:03;;;;;;;7.80;4.40;;;;;;;11.94;100.00;101322.00;10497539;28;20509;-77
2023/05/11 19:41:04;;;;;;;8.57;4.72;;;;;;;11.85;100.00;101330.28;10523764;28;20046;-79
2023/05/11 19:46:05;;;;;;;10.20;5.85;;;;;;;11.75;100.00;101347.31;10496702;28;20135;-79
2023/05/11 19:51:05;;;;;;;12.45;5.93;;;;;;;11.65;100.00;101345.03;10510833;28;20127;-79
2023/05/11 19:56:07;;;;;;;10.15;5.95;;;;;;;11.58;100.00;101359.53;10512152;28;20122;-78
2023/05/11 20:01:07;;;;;;;10.35;5.75;;;;;;;11.54;100.00;101360.22;10528490;28;20491;-78
2023/05/11 20:06:08;;;;;;;8.82;5.25;;;;;;;11.51;100.00;101370.53;10524970;28;20122;-78
2023/05/11 20:11:08;;;;;;;7.68;5.63;;;;;;;11.48;100.00;101378.25;10498400;28;20075;-78
2023/05/11 20:16:09;;;;;;;7.82;4.15;;;;;;;11.42;100.00;101378.84;10508991;28;20082;-78
2023/05/11 20:21:10;;;;;;;9.73;5.40;;;;;;;11.38;100.00;101389.97;10525878;28;20125;-78
2023/05/11 20:26:10;;;;;;;10.77;4.75;;;;;;;11.31;100.00;101393.97;10508525;28;20131;-78
2023/05/11 20:31:10;;;;;;;11.77;4.97;;;;;;;11.28;100.00;101392.09;10508587;28;20098;-79
2023/05/11 20:36:11;;;;;;;9.98;5.20;;;;;;;11.25;100.00;101397.19;10527578;28;20115;-78
2023/05/11 20:41:12;;;;;;;9.65;5.28;;;;;;;11.20;100.00;101390.81;10465172;28;20400;-78
2023/05/11 20:46:14;;;;;;;8.85;4.63;;;;;;;11.15;100.00;101397.50;10516084;28;20788;-78
2023/05/11 20:51:14;;;;;;;12.45;5.93;;;;;;;11.09;100.00;101397.19;10526236;28;20070;-78
2023/05/11 20:56:14;;;;;;;12.40;6.63;;;;;;;11.06;100.00;101395.28;10527086;28;20542;-78
2023/05/11 21:01:15;;;;;;;16.67;10.45;;;;;;;11.07;100.00;101397.09;10527177;28;20440;-78
2023/05/11 21:06:16;;;;;;;22.58;12.80;;;;;;;11.05;100.00;101390.88;10528967;28;20127;-78
2023/05/11 21:11:16;;;;;;;17.42;12.07;;;;;;;11.02;100.00;101393.31;10509859;28;20063;-78
2023/05/11 21:16:17;;;;;;;19.48;12.90;;;;;;;11.03;100.00;101395.13;10525452;28;20111;-78
2023/05/11 21:21:18;;;;;;;25.73;15.07;;;;;;;11.02;100.00;101391.63;10483679;28;20056;-78
2023/05/11 21:26:18;;;;;;;19.70;13.65;;;;;;;10.97;100.00;101403.56;10484392;28;20115;-79
2023/05/11 21:31:19;;;;;;;25.88;16.58;;;;;;;10.95;100.00;101407.81;10505079;28;20042;-78
2023/05/11 21:36:21;;;;;;;28.92;16.73;;;;;;;10.96;100.00;101406.06;10525253;28;20043;-78
2023/05/11 21:41:21;;;;;;;31.83;18.83;;;;;;;10.97;100.00;101405.25;10508869;28;20520;-77
2023/05/11 21:46:21;;;;;;;40.00;16.40;;;;;;;10.94;100.00;101395.53;10526366;28;20064;-78
2023/05/11 21:51:22;;;;;;;24.38;17.48;;;;;;;10.90;100.00;101395.25;10524854;28;20036;-77
2023/05/11 21:56:23;;;;;;;27.83;19.65;;;;;;;10.86;100.00;101400.34;10527100;28;20043;-78
2023/05/11 22:01:24;;;;;;;25.27;16.23;;;;;;;10.82;100.00;101389.63;10526452;28;20036;-79
2023/05/11 22:06:24;;;;;;;33.42;17.08;;;;;;;10.79;100.00;101386.84;10524107;28;20550;-79
2023/05/11 22:11:25;;;;;;;26.50;17.27;;;;;;;10.78;100.00;101385.03;10526474;28;20071;-78
2023/05/11 22:16:26;;;;;;;27.77;17.65;;;;;;;10.78;100.00;101388.53;10507909;28;20089;-79
2023/05/11 22:21:27;;;;;;;33.65;19.83;;;;;;;10.79;100.00;101387.72;10523599;28;20123;-79
2023/05/11 22:26:27;;;;;;;28.75;19.13;;;;;;;10.78;100.00;101385.91;10509989;28;20074;-78